Elrosa, Minnesota
Current Conditions -  °F | °C
As of 6:32 PM on Monday 24 Nov 2014 (Local Time) from KD39 Reporting Station
Clear Clear  
Wind Chill: -7°   Ceiling: Unl
Heat Index: 11°   Visibility: 10mi
Dew Point:   Wind: 21mph
Humidity: 79%   Direction: 320°NW
Pressure: 29.82"   Gusts: 28mph
Location:  45.56°N, 94.95°W
Report Text: KD39 250032Z AUTO 32018G24KT 10SM CLR M11/M14 A2982 RMK AO2 T11151145
Loading
Personal Weather Stations






























Interactive Weather Map New forecast layout! Learn more

10-Day Weather Forecast

Advertisements
Track Severe Weather on mobile